createdAt,value
2023-08-14T00:00:44.220Z,97742.44
2023-08-14T00:04:49.313Z,97734.09
2023-08-14T00:08:53.947Z,97733.94
2023-08-14T00:12:56.955Z,97748.59
2023-08-14T00:17:00.285Z,97747.00
2023-08-14T00:21:05.514Z,97745.63
2023-08-14T00:25:10.492Z,97739.72
2023-08-14T00:29:14.028Z,97743.09
2023-08-14T00:33:17.438Z,97750.78
2023-08-14T00:37:25.150Z,97751.81
2023-08-14T00:41:28.383Z,97754.38
2023-08-14T00:45:45.463Z,97760.41
2023-08-14T00:49:49.826Z,97761.94
2023-08-14T00:53:56.983Z,97774.53
2023-08-14T00:58:00.473Z,97769.09
2023-08-14T01:02:03.992Z,97772.34
2023-08-14T01:06:07.401Z,97783.34
2023-08-14T01:10:14.200Z,97785.63
2023-08-14T01:14:22.038Z,97797.75
2023-08-14T01:18:28.977Z,97789.06
2023-08-14T01:22:43.337Z,97798.72
2023-08-14T01:26:48.857Z,97801.16
2023-08-14T01:30:52.219Z,97798.25
2023-08-14T01:34:57.242Z,97801.72
2023-08-14T01:39:08.150Z,97805.44
2023-08-14T01:43:17.621Z,97812.84
2023-08-14T01:47:23.014Z,97808.00
2023-08-14T01:51:26.783Z,97805.03
2023-08-14T01:55:30.364Z,97804.69
2023-08-14T01:59:43.044Z,97808.38
2023-08-14T02:03:46.058Z,97799.94
2023-08-14T02:07:49.214Z,97804.69
2023-08-14T02:11:53.118Z,97796.63
2023-08-14T02:15:57.967Z,97802.41
2023-08-14T02:20:01.538Z,97792.25
2023-08-14T02:24:05.410Z,97795.91
2023-08-14T02:28:08.757Z,97785.75
2023-08-14T02:32:13.982Z,97788.88
2023-08-14T02:36:17.663Z,97785.06
2023-08-14T02:40:21.048Z,97782.09
2023-08-14T02:44:24.421Z,97779.06
2023-08-14T02:48:29.370Z,97775.88
2023-08-14T02:52:32.819Z,97768.59
2023-08-14T02:56:37.544Z,97761.91
2023-08-14T03:00:40.938Z,97768.72
2023-08-14T03:04:46.008Z,97766.53
2023-08-14T03:08:49.339Z,97754.22
2023-08-14T03:12:52.858Z,97751.44
2023-08-14T03:16:56.110Z,97754.00
2023-08-14T03:21:01.123Z,97750.75
2023-08-14T03:25:05.056Z,97757.59
2023-08-14T03:29:08.322Z,97750.09
2023-08-14T03:33:12.295Z,97760.38
2023-08-14T03:37:17.562Z,97753.91
2023-08-14T03:41:21.213Z,97746.63
2023-08-14T03:45:24.382Z,97750.78
2023-08-14T03:49:28.186Z,97753.88
2023-08-14T03:53:33.632Z,97748.50
2023-08-14T03:57:38.120Z,97745.16
2023-08-14T04:01:44.641Z,97740.53
2023-08-14T04:05:47.805Z,97735.09
2023-08-14T04:09:53.065Z,97737.44
2023-08-14T04:13:56.345Z,97729.09
2023-08-14T04:17:59.804Z,97727.50
2023-08-14T04:22:03.155Z,97728.06
2023-08-14T04:26:08.453Z,97731.88
2023-08-14T04:30:12.616Z,97736.59
2023-08-14T04:34:16.034Z,97721.47
2023-08-14T04:38:19.708Z,97731.38
2023-08-14T04:42:24.824Z,97723.25
2023-08-14T04:46:38.379Z,97713.47
2023-08-14T04:50:48.530Z,97719.66
2023-08-14T04:54:52.462Z,97719.72
2023-08-14T04:58:57.467Z,97710.47
2023-08-14T05:03:00.772Z,97709.19
2023-08-14T05:07:04.369Z,97707.66
2023-08-14T05:11:08.960Z,97718.63
2023-08-14T05:15:14.305Z,97722.31
2023-08-14T05:19:17.507Z,97728.59
2023-08-14T05:23:20.475Z,97723.31
2023-08-14T05:27:26.705Z,97724.13
2023-08-14T05:31:32.249Z,97720.09
2023-08-14T05:35:35.361Z,97725.84
2023-08-14T05:39:38.848Z,97729.50
2023-08-14T05:43:42.392Z,97728.03
2023-08-14T05:47:47.284Z,97739.94
2023-08-14T05:51:50.716Z,97738.16
2023-08-14T05:55:53.929Z,97738.56
2023-08-14T05:59:57.246Z,97734.75
2023-08-14T06:04:02.469Z,97738.78
2023-08-14T06:08:07.709Z,97739.69
2023-08-14T06:12:11.092Z,97740.41
2023-08-14T06:16:15.193Z,97748.06
2023-08-14T06:20:20.165Z,97752.81
2023-08-14T06:24:24.232Z,97770.31
2023-08-14T06:28:27.675Z,97762.03
2023-08-14T06:32:31.019Z,97757.78
2023-08-14T06:36:35.866Z,97755.38
2023-08-14T06:40:39.487Z,97756.16
2023-08-14T06:44:42.716Z,97757.66
2023-08-14T06:48:48.129Z,97765.56
2023-08-14T06:52:54.390Z,97767.06
2023-08-14T06:56:57.853Z,97765.88
2023-08-14T07:01:01.677Z,97758.81
2023-08-14T07:05:08.559Z,97757.44
2023-08-14T07:09:17.556Z,97748.53
2023-08-14T07:13:20.827Z,97760.50
2023-08-14T07:17:24.170Z,97755.47
2023-08-14T07:21:29.050Z,97765.03
2023-08-14T07:25:34.148Z,97756.44
2023-08-14T07:29:37.616Z,97753.53
2023-08-14T07:33:40.687Z,97751.00
2023-08-14T07:37:44.178Z,97743.47
2023-08-14T07:41:54.380Z,97741.75
2023-08-14T07:45:57.738Z,97742.00
2023-08-14T07:50:01.335Z,97737.78
2023-08-14T07:54:06.271Z,97736.53
2023-08-14T07:58:11.061Z,97734.78
2023-08-14T08:02:14.476Z,97743.28
2023-08-14T08:06:17.642Z,97737.22
2023-08-14T08:10:21.245Z,97743.00
2023-08-14T08:14:25.940Z,97731.09
2023-08-14T08:18:29.155Z,97729.97
2023-08-14T08:22:32.378Z,97723.75
2023-08-14T08:26:35.765Z,97725.19
2023-08-14T08:30:40.384Z,97721.38
2023-08-14T08:34:43.787Z,97724.38
2023-08-14T08:38:47.833Z,97732.50
2023-08-14T08:42:51.616Z,97726.56
2023-08-14T08:47:00.482Z,97723.63
2023-08-14T08:51:04.556Z,97727.06
2023-08-14T08:55:09.444Z,97721.69
2023-08-14T08:59:13.262Z,97717.28
2023-08-14T09:03:19.652Z,97712.41
2023-08-14T09:07:23.825Z,97711.09
2023-08-14T09:11:27.266Z,97712.69
2023-08-14T09:15:33.800Z,97711.75
2023-08-14T09:19:40.359Z,97715.59
2023-08-14T09:23:44.203Z,97712.75
2023-08-14T09:27:47.905Z,97713.06
2023-08-14T09:31:56.116Z,97709.25
2023-08-14T09:36:01.279Z,97704.84
2023-08-14T09:40:14.430Z,97698.75
2023-08-14T09:44:20.520Z,97690.16
2023-08-14T09:48:26.505Z,97699.91
2023-08-14T09:52:31.589Z,97698.97
2023-08-14T09:56:35.226Z,97692.13
2023-08-14T10:00:40.167Z,97681.56
2023-08-14T10:04:45.730Z,97687.53
2023-08-14T10:08:53.472Z,97688.59
2023-08-14T10:13:01.329Z,97679.53
2023-08-14T10:17:09.114Z,97677.50
2023-08-14T10:21:15.299Z,97674.31
2023-08-14T10:25:21.066Z,97672.19
2023-08-14T10:29:24.963Z,97674.19
2023-08-14T10:37:56.285Z,97669.00
2023-08-14T10:42:14.948Z,97665.56
2023-08-14T10:46:18.885Z,97657.41
2023-08-14T10:50:23.747Z,97655.19
2023-08-14T10:54:41.485Z,97653.81
2023-08-14T10:58:50.077Z,97647.75
2023-08-14T11:02:56.084Z,97636.03
2023-08-14T11:07:10.400Z,97645.44
2023-08-14T11:11:13.805Z,97640.38
2023-08-14T11:23:45.977Z,97638.69
2023-08-14T11:27:54.826Z,97639.63
2023-08-14T11:31:59.218Z,97633.25
2023-08-14T11:36:10.901Z,97625.34
2023-08-14T11:40:18.285Z,97622.41
2023-08-14T11:44:24.501Z,97616.28
2023-08-14T11:48:28.128Z,97613.09
2023-08-14T11:52:32.147Z,97610.03
2023-08-14T11:56:37.393Z,97604.69
2023-08-14T12:00:43.214Z,97605.13
2023-08-14T12:04:46.371Z,97602.41
2023-08-14T12:08:49.534Z,97599.03
2023-08-14T12:12:56.131Z,97598.00
2023-08-14T12:17:12.926Z,97590.66
2023-08-14T12:21:19.540Z,97589.50
2023-08-14T12:25:23.156Z,97579.59
2023-08-14T12:29:31.401Z,97569.38
2023-08-14T12:33:34.648Z,97581.97
2023-08-14T12:37:37.884Z,97574.16
2023-08-14T12:41:43.408Z,97562.25
2023-08-14T12:45:48.409Z,97562.91
2023-08-14T12:49:53.130Z,97553.84
2023-08-14T12:53:56.599Z,97555.66
2023-08-14T12:57:59.680Z,97562.00
2023-08-14T13:02:05.422Z,97545.75
2023-08-14T13:06:09.006Z,97549.06
2023-08-14T13:10:14.136Z,97536.41
2023-08-14T13:14:17.322Z,97538.25
2023-08-14T13:18:22.959Z,97529.38
2023-08-14T13:22:26.624Z,97526.06
2023-08-14T13:26:32.617Z,97525.16
2023-08-14T13:30:37.715Z,97520.41
2023-08-14T13:34:43.477Z,97514.94
2023-08-14T13:38:47.636Z,97511.00
2023-08-14T13:42:51.349Z,97507.91
2023-08-14T13:46:55.062Z,97504.38
2023-08-14T13:51:01.552Z,97496.31
2023-08-14T13:55:05.316Z,97505.88
2023-08-14T13:59:09.273Z,97496.06
2023-08-14T14:03:12.728Z,97505.41
2023-08-14T14:07:22.043Z,97499.09
2023-08-14T14:11:26.299Z,97500.81
2023-08-14T14:15:29.911Z,97498.88
2023-08-14T14:19:33.094Z,97495.38
2023-08-14T14:23:38.065Z,97488.75
2023-08-14T14:27:41.566Z,97490.78
2023-08-14T14:31:45.297Z,97490.44
2023-08-14T14:35:50.682Z,97486.13
2023-08-14T14:39:55.156Z,97486.13
2023-08-14T14:43:58.341Z,97479.31
2023-08-14T14:48:04.726Z,97479.56
2023-08-14T14:52:08.405Z,97479.72
2023-08-14T14:56:13.493Z,97477.16
2023-08-14T15:00:17.795Z,97471.09
2023-08-14T15:04:21.312Z,97463.75
2023-08-14T15:08:27.176Z,97464.59
2023-08-14T15:12:31.844Z,97463.94
2023-08-14T15:16:34.942Z,97459.84
2023-08-14T15:20:38.791Z,97460.81
2023-08-14T15:24:41.945Z,97459.31
2023-08-14T15:28:46.932Z,97452.41
2023-08-14T15:32:50.384Z,97447.91
2023-08-14T15:36:53.826Z,97450.41
2023-08-14T15:40:58.452Z,97451.34
2023-08-14T15:45:07.971Z,97460.19
2023-08-14T15:49:12.025Z,97456.44
2023-08-14T15:53:15.434Z,97456.28
2023-08-14T15:57:18.745Z,97455.38
2023-08-14T16:01:24.268Z,97462.84
2023-08-14T16:05:27.654Z,97459.44
2023-08-14T16:09:31.437Z,97456.47
2023-08-14T16:13:35.275Z,97463.41
2023-08-14T16:17:43.590Z,97459.53
2023-08-14T16:21:46.862Z,97462.91
2023-08-14T16:25:50.375Z,97457.22
2023-08-14T16:29:53.424Z,97454.34
2023-08-14T16:33:58.873Z,97464.69
2023-08-14T16:38:06.083Z,97457.75
2023-08-14T16:42:10.116Z,97466.47
2023-08-14T16:46:13.464Z,97464.97
2023-08-14T16:50:18.249Z,97461.84
2023-08-14T16:54:21.643Z,97458.75
2023-08-14T16:58:25.087Z,97463.56
2023-08-14T17:02:28.531Z,97463.00
2023-08-14T17:06:33.602Z,97464.59
2023-08-14T17:10:37.772Z,97462.22
2023-08-14T17:14:41.655Z,97460.56
2023-08-14T17:18:44.800Z,97462.75
2023-08-14T17:22:49.576Z,97460.56
2023-08-14T17:26:53.306Z,97463.94
2023-08-14T17:30:57.833Z,97468.41
2023-08-14T17:35:01.057Z,97469.66
2023-08-14T17:39:09.605Z,97466.59
2023-08-14T17:43:14.178Z,97463.44
2023-08-14T17:47:17.871Z,97461.91
2023-08-14T17:51:21.659Z,97458.72
2023-08-14T17:55:26.710Z,97465.66
2023-08-14T17:59:37.431Z,97466.13
2023-08-14T18:03:40.887Z,97471.13
2023-08-14T18:07:45.456Z,97469.66
2023-08-14T18:11:50.704Z,97477.50
2023-08-14T18:15:54.281Z,97475.38
2023-08-14T18:19:57.938Z,97467.59
2023-08-14T18:24:12.026Z,97477.19
2023-08-14T18:29:09.607Z,97470.97
2023-08-14T18:33:14.754Z,97479.00
2023-08-14T18:37:18.910Z,97485.84
2023-08-14T18:41:22.381Z,97490.56
2023-08-14T18:45:27.622Z,97492.56
2023-08-14T18:49:32.660Z,97493.78
2023-08-14T18:53:36.707Z,97504.09
2023-08-14T18:57:40.394Z,97502.06
2023-08-14T19:01:44.725Z,97515.56
2023-08-14T19:05:50.138Z,97509.75
2023-08-14T19:09:54.316Z,97512.19
2023-08-14T19:13:57.513Z,97505.56
2023-08-14T19:18:00.854Z,97512.56
2023-08-14T19:22:06.519Z,97524.91
2023-08-14T19:26:22.493Z,97525.16
2023-08-14T19:30:31.534Z,97532.16
2023-08-14T19:34:35.417Z,97535.66
2023-08-14T19:38:40.503Z,97543.44
2023-08-14T19:42:51.915Z,97550.66
2023-08-14T19:46:55.158Z,97553.31
2023-08-14T19:50:58.775Z,97548.50
2023-08-14T19:55:04.746Z,97553.84
2023-08-14T19:59:09.457Z,97552.75
2023-08-14T20:03:13.305Z,97553.31
2023-08-14T20:07:17.328Z,97552.22
2023-08-14T20:11:22.808Z,97553.84
2023-08-14T20:15:26.672Z,97562.34
2023-08-14T20:19:30.269Z,97559.13
2023-08-14T20:23:35.905Z,97565.00
2023-08-14T20:27:40.987Z,97564.94
2023-08-14T20:31:45.132Z,97567.63
2023-08-14T20:35:48.931Z,97568.66
2023-08-14T20:39:53.000Z,97562.78
2023-08-14T20:43:57.965Z,97564.31
2023-08-14T20:48:01.704Z,97564.84
2023-08-14T20:52:06.712Z,97560.25
2023-08-14T20:56:11.671Z,97554.34
2023-08-14T21:00:18.011Z,97545.50
2023-08-14T21:04:21.617Z,97551.84
2023-08-14T21:08:25.258Z,97552.09
2023-08-14T21:12:32.049Z,97545.88
2023-08-14T21:16:36.899Z,97547.94
2023-08-14T21:20:44.671Z,97541.75
2023-08-14T21:24:47.876Z,97539.25
2023-08-14T21:28:51.705Z,97549.56
2023-08-14T21:32:56.983Z,97553.75
2023-08-14T21:37:00.528Z,97547.53
2023-08-14T21:41:05.423Z,97543.75
2023-08-14T21:45:14.232Z,97540.25
2023-08-14T21:49:19.104Z,97549.00
2023-08-14T21:53:22.752Z,97553.47
2023-08-14T21:57:28.564Z,97550.19
2023-08-14T22:01:32.535Z,97552.50
2023-08-14T22:05:37.687Z,97546.00
2023-08-14T22:09:41.523Z,97558.16
2023-08-14T22:13:46.913Z,97559.13
2023-08-14T22:17:52.475Z,97553.66
2023-08-14T22:21:57.512Z,97555.72
2023-08-14T22:26:01.241Z,97549.75
2023-08-14T22:30:05.337Z,97558.75
2023-08-14T22:34:10.799Z,97558.91
2023-08-14T22:38:15.889Z,97560.94
2023-08-14T22:42:19.716Z,97562.16
2023-08-14T22:46:23.540Z,97560.75
2023-08-14T22:50:27.256Z,97565.69
2023-08-14T22:54:32.099Z,97566.09
2023-08-14T22:58:35.694Z,97569.19
2023-08-14T23:02:40.443Z,97578.13
2023-08-14T23:06:46.657Z,97579.66
2023-08-14T23:10:52.406Z,97568.94
2023-08-14T23:14:57.755Z,97563.56
2023-08-14T23:19:02.176Z,97562.66
2023-08-14T23:23:07.548Z,97569.47
2023-08-14T23:27:12.551Z,97565.44
2023-08-14T23:31:16.098Z,97564.00
2023-08-14T23:35:19.678Z,97571.56
2023-08-14T23:39:23.255Z,97579.59
2023-08-14T23:43:28.629Z,97573.81
2023-08-14T23:47:32.036Z,97577.22
2023-08-14T23:51:35.711Z,97572.63
2023-08-14T23:55:39.672Z,97564.94
2023-08-14T23:59:44.677Z,97570.41
